createdAt,value
2019-03-20T00:02:11.750Z,93864.28
2019-03-20T00:04:49.741Z,93884.50
2019-03-20T00:07:18.895Z,93916.88
2019-03-20T00:09:49.497Z,93857.67
2019-03-20T00:12:19.948Z,93855.56
2019-03-20T00:14:50.796Z,93847.95
2019-03-20T00:17:21.789Z,93830.23
2019-03-20T00:19:52.393Z,93875.59
2019-03-20T00:22:22.900Z,93907.33
2019-03-20T00:24:56.592Z,93878.69
2019-03-20T00:27:28.435Z,93872.69
2019-03-20T00:29:58.826Z,93859.77
2019-03-20T00:32:29.253Z,93887.10
2019-03-20T00:35:01.117Z,93804.98
2019-03-20T00:37:32.217Z,93804.48
2019-03-20T00:40:05.351Z,93815.33
2019-03-20T00:42:35.835Z,93787.67
2019-03-20T00:45:07.624Z,93812.72
2019-03-20T00:47:38.236Z,93853.46
2019-03-20T00:50:11.422Z,93861.07
2019-03-20T00:52:44.538Z,93836.64
2019-03-20T00:55:15.560Z,93836.04
2019-03-20T00:57:46.080Z,93817.92
2019-03-20T01:00:19.103Z,93780.37
2019-03-20T01:02:50.006Z,93836.15
2019-03-20T01:05:22.674Z,93811.92
2019-03-20T01:07:54.739Z,93830.34
2019-03-20T01:10:28.550Z,93833.44
2019-03-20T01:12:58.928Z,93791.07
2019-03-20T01:15:29.330Z,93806.58
2019-03-20T01:18:01.621Z,93822.73
2019-03-20T01:20:32.066Z,93807.22
2019-03-20T01:23:02.394Z,93775.36
2019-03-20T01:25:35.081Z,93764.55
2019-03-20T01:28:05.157Z,93809.32
2019-03-20T01:30:37.029Z,93825.33
2019-03-20T01:33:09.142Z,93807.72
2019-03-20T01:35:39.970Z,93747.44
2019-03-20T01:38:10.429Z,93777.96
2019-03-20T01:40:41.579Z,93830.14
2019-03-20T01:43:11.977Z,93786.37
2019-03-20T01:45:42.446Z,93747.88
2019-03-20T01:48:13.127Z,93775.66
2019-03-20T01:50:45.105Z,93841.15
2019-03-20T01:53:16.181Z,93847.27
2019-03-20T01:55:46.619Z,93824.64
2019-03-20T01:58:17.077Z,93816.73
2019-03-20T02:00:50.173Z,93810.63
2019-03-20T02:03:20.831Z,93814.02
2019-03-20T02:05:51.387Z,93806.42
2019-03-20T02:08:21.967Z,93858.47
2019-03-20T02:10:52.508Z,93869.59
2019-03-20T02:13:22.953Z,93857.17
2019-03-20T02:15:53.903Z,93903.53
2019-03-20T02:18:24.973Z,93928.80
2019-03-20T02:20:56.320Z,93983.80
2019-03-20T02:23:26.856Z,94023.12
2019-03-20T02:25:59.386Z,94035.25
2019-03-20T02:28:47.824Z,93995.42
2019-03-20T02:31:18.363Z,94031.34
2019-03-20T02:33:48.827Z,94076.04
2019-03-20T02:36:19.751Z,94085.27
2019-03-20T02:38:50.437Z,94135.75
2019-03-20T02:41:20.932Z,94102.22
2019-03-20T02:43:53.721Z,94152.48
2019-03-20T02:46:24.425Z,94155.70
2019-03-20T02:48:56.400Z,94225.83
2019-03-20T02:51:28.571Z,94218.70
2019-03-20T02:54:00.094Z,94235.09
2019-03-20T02:56:30.955Z,94209.16
2019-03-20T02:59:05.466Z,94231.84
2019-03-20T03:01:48.368Z,94235.40
2019-03-20T03:04:19.985Z,94186.88
2019-03-20T03:06:50.617Z,94283.38
2019-03-20T03:09:21.989Z,94325.53
2019-03-20T03:11:53.641Z,94338.52
2019-03-20T03:14:42.471Z,94321.31
2019-03-20T03:17:13.503Z,94332.47
2019-03-20T03:19:48.175Z,94352.78
2019-03-20T03:22:19.222Z,94373.68
2019-03-20T03:24:49.935Z,94364.44
2019-03-20T03:27:40.801Z,94384.72
2019-03-20T03:30:13.614Z,94421.20
2019-03-20T03:32:48.231Z,94430.13
2019-03-20T03:35:20.239Z,94484.53
2019-03-20T03:37:56.894Z,94529.66
2019-03-20T03:40:32.497Z,94553.99
2019-03-20T03:43:03.124Z,94574.64
2019-03-20T03:45:33.777Z,94589.73
2019-03-20T03:48:13.745Z,94601.09
2019-03-20T03:50:48.150Z,94602.41
2019-03-20T03:53:17.539Z,94612.16
2019-03-20T03:55:50.035Z,94594.45
2019-03-20T03:58:33.236Z,94615.38
2019-03-20T04:01:10.833Z,94640.73
2019-03-20T04:04:13.840Z,94667.41
2019-03-20T04:06:46.854Z,94696.30
2019-03-20T04:09:25.680Z,94706.38
2019-03-20T04:11:58.643Z,94733.84
2019-03-20T04:14:35.388Z,94687.67
2019-03-20T04:17:30.577Z,94698.92
2019-03-20T04:20:28.286Z,94717.44
2019-03-20T04:23:26.559Z,94715.95
2019-03-20T04:26:32.322Z,94707.38
2019-03-20T04:29:13.549Z,94727.81
2019-03-20T04:31:48.320Z,94738.08
2019-03-20T04:34:20.713Z,94725.58
2019-03-20T04:36:55.181Z,94709.80
2019-03-20T04:39:38.227Z,94727.81
2019-03-20T04:42:46.072Z,94728.81
2019-03-20T04:45:28.422Z,94728.00
2019-03-20T04:48:19.287Z,94751.25
2019-03-20T04:51:33.229Z,94749.45
2019-03-20T04:54:24.340Z,94764.25
2019-03-20T05:00:39.350Z,94767.48
2019-03-20T05:04:10.805Z,94800.34
2019-03-20T05:09:28.560Z,94806.38
2019-03-20T05:15:10.683Z,94839.21
2019-03-20T05:18:07.809Z,94846.18
2019-03-20T05:20:42.373Z,94832.87
2019-03-20T05:29:48.716Z,94869.63
2019-03-20T05:32:31.884Z,94892.94
2019-03-20T05:35:21.559Z,94885.59
2019-03-20T05:38:06.459Z,94907.74
2019-03-20T05:40:40.010Z,94900.89
2019-03-20T05:43:21.751Z,94913.59
2019-03-20T05:45:55.878Z,94945.95
2019-03-20T05:48:34.462Z,94962.39
2019-03-20T05:51:27.537Z,94993.67
2019-03-20T05:56:55.770Z,95068.89
2019-03-20T05:59:32.554Z,95084.53
2019-03-20T06:02:11.245Z,95118.77
2019-03-20T06:05:36.075Z,95162.27
2019-03-20T06:08:31.327Z,95151.98
2019-03-20T06:11:09.524Z,95125.30
2019-03-20T06:13:59.104Z,95135.41
2019-03-20T06:17:11.145Z,95129.36
2019-03-20T06:19:41.811Z,95178.41
2019-03-20T06:22:22.549Z,95211.17
2019-03-20T06:24:56.271Z,95236.79
2019-03-20T06:27:26.201Z,95267.91
2019-03-20T06:29:58.469Z,95281.63
2019-03-20T06:32:29.479Z,95285.19
2019-03-20T06:35:00.429Z,95284.06
2019-03-20T06:37:33.463Z,95286.67
2019-03-20T06:40:04.384Z,95306.08
2019-03-20T06:42:56.438Z,95314.43
2019-03-20T06:45:40.622Z,95316.68
2019-03-20T06:48:11.147Z,95318.67
2019-03-20T06:50:44.467Z,95318.67
2019-03-20T06:53:15.440Z,95295.16
2019-03-20T06:55:46.567Z,95284.24
2019-03-20T06:58:16.988Z,95259.11
2019-03-20T07:01:14.717Z,95264.16
2019-03-20T07:04:20.917Z,95251.00
2019-03-20T07:07:19.953Z,95212.81
2019-03-20T07:10:21.032Z,95197.79
2019-03-20T07:12:51.843Z,95203.02
2019-03-20T07:15:22.463Z,95166.38
2019-03-20T07:17:52.926Z,95144.19
2019-03-20T07:20:24.001Z,95202.53
2019-03-20T07:23:03.379Z,95239.72
2019-03-20T07:25:36.094Z,95254.25
2019-03-20T07:28:08.455Z,95229.93
2019-03-20T07:30:42.695Z,95243.95
2019-03-20T07:33:13.465Z,95265.47
2019-03-20T07:35:44.676Z,95290.11
2019-03-20T07:38:21.978Z,95281.13
2019-03-20T07:40:48.818Z,95342.80
2019-03-20T07:43:20.035Z,95342.80
2019-03-20T07:45:52.643Z,95384.91
2019-03-20T07:48:24.796Z,95384.91
2019-03-20T07:50:56.690Z,95385.22
2019-03-20T07:53:29.546Z,95383.47
2019-03-20T07:56:02.561Z,95384.91
2019-03-20T07:58:35.951Z,95366.31
2019-03-20T08:01:06.463Z,95411.81
2019-03-20T08:03:38.103Z,95447.92
2019-03-20T08:06:11.562Z,95487.77
2019-03-20T08:08:42.573Z,95519.79
2019-03-20T08:11:13.396Z,95547.88
2019-03-20T08:13:45.394Z,95547.25
2019-03-20T08:16:16.893Z,95527.61
2019-03-20T08:19:25.744Z,95541.66
2019-03-20T08:24:36.876Z,95643.66
2019-03-20T08:27:28.738Z,95698.09
2019-03-20T08:29:59.598Z,95690.41
2019-03-20T08:32:30.409Z,95702.84
2019-03-20T08:35:01.731Z,95696.78
2019-03-20T08:37:34.565Z,95712.97
2019-03-20T08:40:06.323Z,95724.73
2019-03-20T08:42:39.020Z,95762.19
2019-03-20T08:45:11.444Z,95781.04
2019-03-20T08:47:43.579Z,95757.94
2019-03-20T08:50:18.447Z,95752.05
2019-03-20T08:52:48.899Z,95786.61
2019-03-20T08:55:21.228Z,95797.38
2019-03-20T08:57:51.820Z,95815.89
2019-03-20T09:00:22.804Z,95832.55
2019-03-20T09:02:57.300Z,95860.52
2019-03-20T09:05:30.680Z,95878.57
2019-03-20T09:08:01.324Z,95871.34
2019-03-20T09:10:31.679Z,95855.63
2019-03-20T09:13:02.742Z,95851.38
2019-03-20T09:15:33.443Z,95870.20
2019-03-20T09:18:07.617Z,95871.02
2019-03-20T09:20:38.288Z,95872.66
2019-03-20T09:23:09.077Z,95889.39
2019-03-20T09:25:39.472Z,95912.12
2019-03-20T09:28:09.955Z,95923.76
2019-03-20T09:30:40.521Z,95927.84
2019-03-20T09:33:10.866Z,95913.62
2019-03-20T09:35:41.541Z,95914.25
2019-03-20T09:38:14.315Z,95881.52
2019-03-20T09:40:45.890Z,95896.09
2019-03-20T09:43:17.055Z,95967.79
2019-03-20T09:45:47.805Z,96004.16
2019-03-20T09:48:18.238Z,96003.91
2019-03-20T09:50:48.684Z,96100.37
2019-03-20T09:53:22.768Z,96135.45
2019-03-20T09:55:54.423Z,96142.81
2019-03-20T09:58:24.938Z,96174.46
2019-03-20T10:00:55.264Z,96198.23
2019-03-20T10:03:25.777Z,96188.89
2019-03-20T10:05:58.646Z,96184.63
2019-03-20T10:08:29.151Z,96171.52
2019-03-20T10:11:12.706Z,96136.27
2019-03-20T10:13:43.125Z,96144.63
2019-03-20T10:16:13.501Z,96163.30
2019-03-20T10:18:44.399Z,96206.27
2019-03-20T10:21:14.782Z,96251.89
2019-03-20T10:23:45.162Z,96278.12
2019-03-20T10:26:15.670Z,96313.25
2019-03-20T10:28:48.929Z,96344.79
2019-03-20T10:31:19.606Z,96375.31
2019-03-20T10:33:49.975Z,96372.03
2019-03-20T10:36:20.387Z,96361.52
2019-03-20T10:38:50.953Z,96485.36
2019-03-20T10:41:22.272Z,96540.39
2019-03-20T10:43:52.595Z,96617.17
2019-03-20T10:46:22.963Z,96664.55
2019-03-20T10:48:56.337Z,96698.59
2019-03-20T10:51:30.440Z,96746.13
2019-03-20T10:54:00.813Z,96890.98
2019-03-20T10:56:41.009Z,96949.84
2019-03-20T10:59:11.525Z,97007.69
2019-03-20T11:01:42.988Z,97022.69
2019-03-20T11:04:18.993Z,97050.20
2019-03-20T11:06:49.330Z,97004.70
2019-03-20T11:09:19.872Z,96936.47
2019-03-20T11:11:50.242Z,96948.03
2019-03-20T11:14:20.769Z,96939.80
2019-03-20T11:16:51.365Z,96968.95
2019-03-20T11:19:32.057Z,96999.76
2019-03-20T11:22:02.946Z,96959.23
2019-03-20T11:24:33.411Z,96881.28
2019-03-20T11:27:06.308Z,96878.31
2019-03-20T11:29:37.353Z,96962.53
2019-03-20T11:32:08.116Z,97015.94
2019-03-20T11:34:41.810Z,97038.67
2019-03-20T11:37:13.981Z,97052.84
2019-03-20T11:39:44.618Z,97105.75
2019-03-20T11:42:18.228Z,97196.16
2019-03-20T11:44:50.028Z,97215.95
2019-03-20T11:47:22.401Z,97256.06
2019-03-20T11:49:53.344Z,97431.75
2019-03-20T11:52:24.112Z,97516.70
2019-03-20T11:54:54.783Z,97580.00
2019-03-20T11:57:25.736Z,97756.88
2019-03-20T12:02:58.475Z,97976.20
2019-03-20T12:05:35.353Z,98059.76
2019-03-20T12:08:42.594Z,97945.55
2019-03-20T12:11:30.397Z,97924.80
2019-03-20T12:14:21.707Z,98158.41
2019-03-20T12:49:45.385Z,99922.67
2019-03-20T12:55:35.911Z,99703.43
2019-03-20T12:58:34.853Z,99817.42
2019-03-20T13:01:28.380Z,99671.95
2019-03-20T13:03:59.560Z,99262.97
2019-03-20T13:09:59.570Z,98781.34
2019-03-20T13:19:59.269Z,99699.92
2019-03-20T13:48:15.195Z,101376.55
2019-03-20T13:51:44.506Z,101355.09
2019-03-20T14:10:24.535Z,102105.79
2019-03-20T14:16:58.314Z,102921.58
2019-03-20T14:20:11.078Z,102476.75
2019-03-20T14:23:15.753Z,102294.42
2019-03-20T15:19:18.043Z,99621.51
2019-03-20T15:25:05.056Z,99523.42
2019-03-20T15:31:32.721Z,99773.21
2019-03-20T15:41:36.924Z,99612.41
2019-03-20T15:45:02.141Z,99305.38
2019-03-20T15:51:33.998Z,98742.53
2019-03-20T15:54:44.899Z,98558.51
2019-03-20T15:57:37.626Z,98402.59
2019-03-20T16:10:38.689Z,97987.77
2019-03-20T16:20:46.400Z,97823.06
2019-03-20T16:23:15.666Z,97777.05
2019-03-20T16:26:16.827Z,97694.63
2019-03-20T16:34:37.136Z,97488.24
2019-03-20T16:37:46.507Z,97377.58
2019-03-20T16:43:58.742Z,97225.36
2019-03-20T16:46:40.674Z,97157.41
2019-03-20T16:49:52.092Z,97150.48
2019-03-20T16:52:34.346Z,97099.01
2019-03-20T16:55:23.664Z,97054.67
2019-03-20T16:58:23.709Z,97020.86
2019-03-20T17:03:05.582Z,96972.09
2019-03-20T17:05:25.582Z,96899.73
2019-03-20T17:08:33.173Z,96847.72
2019-03-20T17:11:34.468Z,96776.44
2019-03-20T17:17:21.525Z,96766.06
2019-03-20T17:20:09.297Z,96665.20
2019-03-20T17:22:59.347Z,96697.78
2019-03-20T17:25:51.991Z,96677.05
2019-03-20T17:28:35.763Z,96655.66
2019-03-20T17:31:07.347Z,96620.65
2019-03-20T17:33:53.195Z,96633.97
2019-03-20T17:36:39.073Z,96623.28
2019-03-20T17:39:13.677Z,96560.95
2019-03-20T17:41:45.038Z,96534.83
2019-03-20T17:44:19.519Z,96536.97
2019-03-20T17:47:04.019Z,96542.23
2019-03-20T17:49:46.981Z,96500.83
2019-03-20T17:52:24.596Z,96482.10
2019-03-20T17:54:56.265Z,96514.46
2019-03-20T17:57:36.455Z,96516.92
2019-03-20T18:00:23.467Z,96509.20
2019-03-20T18:03:00.748Z,96551.75
2019-03-20T18:21:21.840Z,96408.49
2019-03-20T18:24:12.314Z,96416.70
2019-03-20T18:27:14.243Z,96387.15
2019-03-20T18:30:06.443Z,96412.11
2019-03-20T18:33:33.797Z,96348.41
2019-03-20T18:36:25.505Z,96407.17
2019-03-20T18:39:38.789Z,96352.36
2019-03-20T18:45:24.502Z,96307.84
2019-03-20T18:48:10.807Z,96321.14
2019-03-20T18:55:05.829Z,96264.05
2019-03-20T19:27:33.621Z,95933.27
2019-03-20T19:30:46.590Z,95898.26
2019-03-20T19:33:47.839Z,95901.02
2019-03-20T19:37:03.770Z,95882.16
2019-03-20T19:50:43.741Z,95808.55
2019-03-20T19:54:58.254Z,95754.53
2019-03-20T20:03:06.510Z,95827.34
2019-03-20T20:05:54.422Z,95780.41
2019-03-20T20:11:24.717Z,95688.81
2019-03-20T20:17:40.863Z,95529.77
2019-03-20T20:53:09.991Z,95207.63
2019-03-20T20:56:25.842Z,95249.06
2019-03-20T20:59:25.967Z,95231.92
2019-03-20T21:05:45.309Z,95251.31
2019-03-20T21:08:48.878Z,95322.41
2019-03-20T21:12:03.050Z,95385.91
2019-03-20T21:14:39.038Z,95446.98
2019-03-20T21:17:19.990Z,95429.47
2019-03-20T21:20:05.349Z,95438.95
2019-03-20T21:23:27.836Z,95540.34
2019-03-20T21:26:05.758Z,95587.92
2019-03-20T21:29:14.919Z,95674.39
2019-03-20T21:32:05.741Z,95791.50
2019-03-20T21:35:19.870Z,95848.75
2019-03-20T21:38:06.585Z,95882.02
2019-03-20T21:41:06.521Z,95793.63
2019-03-20T21:44:22.994Z,95719.84
2019-03-20T21:47:32.447Z,95636.47
2019-03-20T21:50:50.737Z,95551.18
2019-03-20T21:53:35.565Z,95475.38
2019-03-20T21:56:27.053Z,95502.80
2019-03-20T21:59:15.249Z,95555.42
2019-03-20T22:02:25.424Z,95636.78
2019-03-20T22:04:56.876Z,95640.22
2019-03-20T22:07:28.069Z,95712.33
2019-03-20T22:10:37.852Z,95762.69
2019-03-20T22:13:29.270Z,95851.70
2019-03-20T22:16:45.749Z,95940.44
2019-03-20T22:19:57.184Z,96004.98
2019-03-20T22:23:09.764Z,95988.44
2019-03-20T22:26:23.957Z,95924.08
2019-03-20T22:29:54.025Z,95950.58
2019-03-20T22:33:10.292Z,95941.92
2019-03-20T22:36:18.329Z,95941.42
2019-03-20T22:40:03.597Z,95954.52
2019-03-20T22:43:08.804Z,96052.16
2019-03-20T22:46:34.085Z,96175.74
2019-03-20T22:49:19.532Z,96151.16
2019-03-20T22:52:29.331Z,96229.58
2019-03-20T22:58:34.907Z,96180.19
2019-03-20T23:01:39.889Z,96169.84
2019-03-20T23:05:26.629Z,96175.92
2019-03-20T23:28:59.069Z,96222.36
2019-03-20T23:31:26.271Z,96225.16
2019-03-20T23:36:59.891Z,96144.63
2019-03-20T23:40:01.152Z,96144.63
2019-03-20T23:52:38.531Z,96195.43
2019-03-20T23:56:06.350Z,96140.68
2019-03-20T23:58:33.068Z,96064.62
